Terminal Aerodrome Forecast
Issued by NWS Austin/San Antonio, TX

Home | Current Version | Previous Version | Text Only | Print | Product List | Glossary On
Versions: 1 2 3 4 5 6 7 8 9 10 11 12 13 14 15 16 17 18 19 20 21 22 23 24 25 26 27
000
FTUS44 KEWX 050802 AAC
TAFAUS
TAF AMD
KAUS 050802Z 0508/0612 02011KT 6SM -RA BKN012 BKN035
     FM051000 01010KT P6SM -SHRA OVC008
     FM051800 35010KT P6SM OVC010 PROB30 0518/0524 -SHRA
     FM060000 24005KT P6SM SCT010 OVC020
     FM060300 24005KT P6SM SCT050=

USA.gov is the U.S. government's official web portal to all federal, state and local government web resources and services.